sensor_id;sensor_type;location;lat;lon;timestamp;temperature;humidity
19805;DHT22;10062;51.052;13.756;2022-09-09T00:00:49;15.30;16.70
19805;DHT22;10062;51.052;13.756;2022-09-09T00:03:26;15.20;18.80
19805;DHT22;10062;51.052;13.756;2022-09-09T00:06:04;15.20;27.70
19805;DHT22;10062;51.052;13.756;2022-09-09T00:08:45;15.10;18.80
19805;DHT22;10062;51.052;13.756;2022-09-09T00:11:26;15.20;25.80
19805;DHT22;10062;51.052;13.756;2022-09-09T00:14:03;15.10;28.80
19805;DHT22;10062;51.052;13.756;2022-09-09T00:16:41;15.10;38.40
19805;DHT22;10062;51.052;13.756;2022-09-09T00:19:21;15.10;42.40
19805;DHT22;10062;51.052;13.756;2022-09-09T00:22:02;15.00;60.60
19805;DHT22;10062;51.052;13.756;2022-09-09T00:24:41;15.10;46.40
19805;DHT22;10062;51.052;13.756;2022-09-09T00:27:19;15.10;57.70
19805;DHT22;10062;51.052;13.756;2022-09-09T00:29:58;15.00;49.60
19805;DHT22;10062;51.052;13.756;2022-09-09T00:32:33;15.20;15.80
19805;DHT22;10062;51.052;13.756;2022-09-09T00:35:16;15.20;1.00
19805;DHT22;10062;51.052;13.756;2022-09-09T00:37:51;15.10;9.20
19805;DHT22;10062;51.052;13.756;2022-09-09T00:40:29;15.10;17.50
19805;DHT22;10062;51.052;13.756;2022-09-09T00:43:25;15.20;18.60
19805;DHT22;10062;51.052;13.756;2022-09-09T00:46:29;15.00;24.80
19805;DHT22;10062;51.052;13.756;2022-09-09T00:49:15;15.00;38.50
19805;DHT22;10062;51.052;13.756;2022-09-09T00:51:59;15.00;23.30
19805;DHT22;10062;51.052;13.756;2022-09-09T00:54:43;14.90;34.70
19805;DHT22;10062;51.052;13.756;2022-09-09T00:57:28;14.90;49.50
19805;DHT22;10062;51.052;13.756;2022-09-09T01:00:21;14.90;60.10
19805;DHT22;10062;51.052;13.756;2022-09-09T01:03:06;14.80;53.10
19805;DHT22;10062;51.052;13.756;2022-09-09T01:05:44;14.80;65.60
19805;DHT22;10062;51.052;13.756;2022-09-09T01:08:35;14.80;58.50
19805;DHT22;10062;51.052;13.756;2022-09-09T01:11:16;14.70;60.50
19805;DHT22;10062;51.052;13.756;2022-09-09T01:13:53;14.80;56.60
19805;DHT22;10062;51.052;13.756;2022-09-09T01:16:30;14.70;54.00
19805;DHT22;10062;51.052;13.756;2022-09-09T01:19:05;14.70;53.50
19805;DHT22;10062;51.052;13.756;2022-09-09T01:21:43;14.70;62.50
19805;DHT22;10062;51.052;13.756;2022-09-09T01:24:26;14.60;81.50
19805;DHT22;10062;51.052;13.756;2022-09-09T01:27:15;14.60;90.40
19805;DHT22;10062;51.052;13.756;2022-09-09T01:29:48;14.50;98.30
19805;DHT22;10062;51.052;13.756;2022-09-09T01:32:40;14.60;93.90
19805;DHT22;10062;51.052;13.756;2022-09-09T01:35:23;14.70;50.80
19805;DHT22;10062;51.052;13.756;2022-09-09T01:38:01;14.70;46.90
19805;DHT22;10062;51.052;13.756;2022-09-09T01:40:34;14.70;56.20
19805;DHT22;10062;51.052;13.756;2022-09-09T01:43:07;14.70;49.70
19805;DHT22;10062;51.052;13.756;2022-09-09T01:45:41;14.60;67.50
19805;DHT22;10062;51.052;13.756;2022-09-09T01:48:14;14.60;61.40
19805;DHT22;10062;51.052;13.756;2022-09-09T01:50:50;14.50;65.80
19805;DHT22;10062;51.052;13.756;2022-09-09T01:53:23;14.40;63.80
19805;DHT22;10062;51.052;13.756;2022-09-09T01:56:02;14.40;78.40
19805;DHT22;10062;51.052;13.756;2022-09-09T01:58:56;14.40;98.20
19805;DHT22;10062;51.052;13.756;2022-09-09T02:01:40;14.40;94.30
19805;DHT22;10062;51.052;13.756;2022-09-09T02:04:27;14.20;94.40
19805;DHT22;10062;51.052;13.756;2022-09-09T02:07:06;14.30;93.80
19805;DHT22;10062;51.052;13.756;2022-09-09T02:09:44;14.20;90.70
19805;DHT22;10062;51.052;13.756;2022-09-09T02:12:20;14.20;99.00
19805;DHT22;10062;51.052;13.756;2022-09-09T02:15:03;14.20;99.90
19805;DHT22;10062;51.052;13.756;2022-09-09T02:17:46;14.10;99.60
19805;DHT22;10062;51.052;13.756;2022-09-09T02:20:23;14.10;99.90
19805;DHT22;10062;51.052;13.756;2022-09-09T02:23:04;14.10;99.90
19805;DHT22;10062;51.052;13.756;2022-09-09T02:25:37;14.10;99.90
19805;DHT22;10062;51.052;13.756;2022-09-09T02:28:22;14.00;99.90
19805;DHT22;10062;51.052;13.756;2022-09-09T02:30:58;14.00;99.90
19805;DHT22;10062;51.052;13.756;2022-09-09T02:33:42;14.00;99.90
19805;DHT22;10062;51.052;13.756;2022-09-09T02:36:16;14.00;99.90
19805;DHT22;10062;51.052;13.756;2022-09-09T02:38:49;14.00;99.90
19805;DHT22;10062;51.052;13.756;2022-09-09T02:41:32;14.00;99.90
19805;DHT22;10062;51.052;13.756;2022-09-09T02:44:08;13.90;99.90
19805;DHT22;10062;51.052;13.756;2022-09-09T02:46:55;13.90;99.90
19805;DHT22;10062;51.052;13.756;2022-09-09T02:49:42;13.90;99.90
19805;DHT22;10062;51.052;13.756;2022-09-09T02:52:20;13.80;99.90
19805;DHT22;10062;51.052;13.756;2022-09-09T02:54:59;13.80;99.90
19805;DHT22;10062;51.052;13.756;2022-09-09T02:57:33;13.80;99.90
19805;DHT22;10062;51.052;13.756;2022-09-09T03:00:07;13.70;99.90
19805;DHT22;10062;51.052;13.756;2022-09-09T03:02:41;13.80;99.90
19805;DHT22;10062;51.052;13.756;2022-09-09T03:05:13;13.60;99.90
19805;DHT22;10062;51.052;13.756;2022-09-09T03:07:46;13.60;99.90
19805;DHT22;10062;51.052;13.756;2022-09-09T03:10:18;13.70;99.90
19805;DHT22;10062;51.052;13.756;2022-09-09T03:12:50;13.70;99.90
19805;DHT22;10062;51.052;13.756;2022-09-09T03:15:23;13.80;99.90
19805;DHT22;10062;51.052;13.756;2022-09-09T03:18:02;13.90;99.90
19805;DHT22;10062;51.052;13.756;2022-09-09T03:20:34;14.00;93.60
19805;DHT22;10062;51.052;13.756;2022-09-09T03:23:06;13.90;80.00
19805;DHT22;10062;51.052;13.756;2022-09-09T03:25:38;13.70;94.10
19805;DHT22;10062;51.052;13.756;2022-09-09T03:28:10;13.70;99.90
19805;DHT22;10062;51.052;13.756;2022-09-09T03:30:43;13.70;99.90
19805;DHT22;10062;51.052;13.756;2022-09-09T03:33:16;13.70;99.90
19805;DHT22;10062;51.052;13.756;2022-09-09T03:35:50;13.60;99.90
19805;DHT22;10062;51.052;13.756;2022-09-09T03:38:24;13.60;99.90
19805;DHT22;10062;51.052;13.756;2022-09-09T03:40:56;13.60;99.90
19805;DHT22;10062;51.052;13.756;2022-09-09T03:43:29;13.50;99.90
19805;DHT22;10062;51.052;13.756;2022-09-09T03:46:01;13.60;99.90
19805;DHT22;10062;51.052;13.756;2022-09-09T03:48:35;13.60;99.90
19805;DHT22;10062;51.052;13.756;2022-09-09T03:51:08;13.60;99.90
19805;DHT22;10062;51.052;13.756;2022-09-09T03:53:39;13.70;92.40
19805;DHT22;10062;51.052;13.756;2022-09-09T03:56:11;13.70;86.10
19805;DHT22;10062;51.052;13.756;2022-09-09T03:58:43;13.70;89.00
19805;DHT22;10062;51.052;13.756;2022-09-09T04:01:16;13.70;85.70
19805;DHT22;10062;51.052;13.756;2022-09-09T04:03:50;13.60;94.10
19805;DHT22;10062;51.052;13.756;2022-09-09T04:06:23;13.50;99.90
19805;DHT22;10062;51.052;13.756;2022-09-09T04:08:55;13.50;99.90
19805;DHT22;10062;51.052;13.756;2022-09-09T04:11:30;13.50;99.90
19805;DHT22;10062;51.052;13.756;2022-09-09T04:14:03;13.50;99.90
19805;DHT22;10062;51.052;13.756;2022-09-09T04:16:36;14.50;99.90
19805;DHT22;10062;51.052;13.756;2022-09-09T04:19:10;13.40;99.90
19805;DHT22;10062;51.052;13.756;2022-09-09T04:21:42;13.50;99.90
19805;DHT22;10062;51.052;13.756;2022-09-09T04:24:15;13.50;99.90
19805;DHT22;10062;51.052;13.756;2022-09-09T04:26:47;13.50;99.90
19805;DHT22;10062;51.052;13.756;2022-09-09T04:29:19;13.50;99.90
19805;DHT22;10062;51.052;13.756;2022-09-09T04:31:51;13.50;99.90
19805;DHT22;10062;51.052;13.756;2022-09-09T04:34:25;13.40;99.90
19805;DHT22;10062;51.052;13.756;2022-09-09T04:36:57;13.40;99.90
19805;DHT22;10062;51.052;13.756;2022-09-09T04:39:31;13.50;99.90
19805;DHT22;10062;51.052;13.756;2022-09-09T04:42:04;13.50;99.90
19805;DHT22;10062;51.052;13.756;2022-09-09T04:44:36;13.50;99.90
19805;DHT22;10062;51.052;13.756;2022-09-09T04:47:07;13.40;99.90
19805;DHT22;10062;51.052;13.756;2022-09-09T04:49:41;13.40;99.90
19805;DHT22;10062;51.052;13.756;2022-09-09T04:52:13;13.40;99.90
19805;DHT22;10062;51.052;13.756;2022-09-09T04:54:48;13.40;99.90
19805;DHT22;10062;51.052;13.756;2022-09-09T04:57:20;13.40;99.90
19805;DHT22;10062;51.052;13.756;2022-09-09T04:59:52;13.30;99.90
19805;DHT22;10062;51.052;13.756;2022-09-09T05:02:24;13.30;99.90
19805;DHT22;10062;51.052;13.756;2022-09-09T05:04:57;13.40;99.90
19805;DHT22;10062;51.052;13.756;2022-09-09T05:07:29;13.50;99.90
19805;DHT22;10062;51.052;13.756;2022-09-09T05:10:02;13.60;99.90
19805;DHT22;10062;51.052;13.756;2022-09-09T05:12:35;13.60;99.90
19805;DHT22;10062;51.052;13.756;2022-09-09T05:15:08;13.60;99.90
19805;DHT22;10062;51.052;13.756;2022-09-09T05:17:42;13.70;99.90
19805;DHT22;10062;51.052;13.756;2022-09-09T05:20:16;13.70;99.90
19805;DHT22;10062;51.052;13.756;2022-09-09T05:22:47;13.80;99.90
19805;DHT22;10062;51.052;13.756;2022-09-09T05:25:20;13.80;95.40
19805;DHT22;10062;51.052;13.756;2022-09-09T05:27:53;14.00;92.60
19805;DHT22;10062;51.052;13.756;2022-09-09T05:30:25;14.00;80.40
19805;DHT22;10062;51.052;13.756;2022-09-09T05:32:57;14.10;74.30
19805;DHT22;10062;51.052;13.756;2022-09-09T05:35:30;14.10;57.30
19805;DHT22;10062;51.052;13.756;2022-09-09T05:38:01;14.20;55.20
19805;DHT22;10062;51.052;13.756;2022-09-09T05:40:33;14.40;48.80
19805;DHT22;10062;51.052;13.756;2022-09-09T05:43:05;14.50;29.00
19805;DHT22;10062;51.052;13.756;2022-09-09T05:45:37;14.50;17.10
19805;DHT22;10062;51.052;13.756;2022-09-09T05:48:09;14.60;10.90
19805;DHT22;10062;51.052;13.756;2022-09-09T05:50:43;14.60;8.10
19805;DHT22;10062;51.052;13.756;2022-09-09T05:53:15;14.70;10.80
19805;DHT22;10062;51.052;13.756;2022-09-09T05:55:47;14.80;1.00
19805;DHT22;10062;51.052;13.756;2022-09-09T05:58:19;14.80;1.00
19805;DHT22;10062;51.052;13.756;2022-09-09T06:00:51;14.90;1.00
19805;DHT22;10062;51.052;13.756;2022-09-09T06:03:24;14.90;1.00
19805;DHT22;10062;51.052;13.756;2022-09-09T06:06:03;15.00;1.00
19805;DHT22;10062;51.052;13.756;2022-09-09T06:08:37;15.20;1.00
19805;DHT22;10062;51.052;13.756;2022-09-09T06:11:12;15.20;1.00
19805;DHT22;10062;51.052;13.756;2022-09-09T06:13:45;15.30;1.00
19805;DHT22;10062;51.052;13.756;2022-09-09T06:16:19;15.20;1.00
19805;DHT22;10062;51.052;13.756;2022-09-09T06:18:53;15.20;1.00
19805;DHT22;10062;51.052;13.756;2022-09-09T06:21:28;15.40;1.00
19805;DHT22;10062;51.052;13.756;2022-09-09T06:24:04;15.40;1.00
19805;DHT22;10062;51.052;13.756;2022-09-09T06:26:37;15.40;1.00
19805;DHT22;10062;51.052;13.756;2022-09-09T06:29:11;15.40;1.00
19805;DHT22;10062;51.052;13.756;2022-09-09T06:31:44;15.40;1.00
19805;DHT22;10062;51.052;13.756;2022-09-09T06:34:20;15.60;1.00
19805;DHT22;10062;51.052;13.756;2022-09-09T06:36:56;15.70;1.00
19805;DHT22;10062;51.052;13.756;2022-09-09T06:39:29;15.60;1.00
19805;DHT22;10062;51.052;13.756;2022-09-09T06:42:01;15.60;1.00
19805;DHT22;10062;51.052;13.756;2022-09-09T06:44:52;15.70;1.00
19805;DHT22;10062;51.052;13.756;2022-09-09T06:47:35;15.80;1.00
19805;DHT22;10062;51.052;13.756;2022-09-09T06:50:08;16.00;1.00
19805;DHT22;10062;51.052;13.756;2022-09-09T06:52:46;16.20;1.00
19805;DHT22;10062;51.052;13.756;2022-09-09T06:55:18;16.30;1.00
19805;DHT22;10062;51.052;13.756;2022-09-09T06:57:51;16.50;1.00
19805;DHT22;10062;51.052;13.756;2022-09-09T07:00:27;16.50;1.00
19805;DHT22;10062;51.052;13.756;2022-09-09T07:03:01;16.50;1.00
19805;DHT22;10062;51.052;13.756;2022-09-09T07:05:33;16.90;1.00
19805;DHT22;10062;51.052;13.756;2022-09-09T07:08:06;17.90;1.00
19805;DHT22;10062;51.052;13.756;2022-09-09T07:10:37;18.20;1.00
19805;DHT22;10062;51.052;13.756;2022-09-09T07:13:09;18.30;1.00
19805;DHT22;10062;51.052;13.756;2022-09-09T07:15:41;18.60;99.90
19805;DHT22;10062;51.052;13.756;2022-09-09T07:18:13;18.90;1.00
19805;DHT22;10062;51.052;13.756;2022-09-09T07:20:53;18.80;1.00
19805;DHT22;10062;51.052;13.756;2022-09-09T07:23:26;19.00;99.90
19805;DHT22;10062;51.052;13.756;2022-09-09T07:25:58;19.30;99.90
19805;DHT22;10062;51.052;13.756;2022-09-09T07:28:31;19.70;1.00
19805;DHT22;10062;51.052;13.756;2022-09-09T07:31:02;20.20;99.90
19805;DHT22;10062;51.052;13.756;2022-09-09T07:33:35;21.30;1.00
19805;DHT22;10062;51.052;13.756;2022-09-09T07:36:09;22.30;1.00
19805;DHT22;10062;51.052;13.756;2022-09-09T07:38:46;23.40;99.90
19805;DHT22;10062;51.052;13.756;2022-09-09T07:41:19;24.60;1.00
19805;DHT22;10062;51.052;13.756;2022-09-09T07:43:54;26.10;1.00
19805;DHT22;10062;51.052;13.756;2022-09-09T07:46:27;27.10;99.90
19805;DHT22;10062;51.052;13.756;2022-09-09T07:48:59;27.80;1.00
19805;DHT22;10062;51.052;13.756;2022-09-09T07:51:35;28.50;1.00
19805;DHT22;10062;51.052;13.756;2022-09-09T07:54:10;28.50;1.00
19805;DHT22;10062;51.052;13.756;2022-09-09T07:56:44;27.10;1.00
19805;DHT22;10062;51.052;13.756;2022-09-09T07:59:16;26.50;1.00
19805;DHT22;10062;51.052;13.756;2022-09-09T08:01:52;26.50;1.00
19805;DHT22;10062;51.052;13.756;2022-09-09T08:04:25;26.00;8.40
19805;DHT22;10062;51.052;13.756;2022-09-09T08:07:01;26.10;17.20
19805;DHT22;10062;51.052;13.756;2022-09-09T08:09:39;26.30;8.70
19805;DHT22;10062;51.052;13.756;2022-09-09T08:12:17;24.00;99.90
19805;DHT22;10062;51.052;13.756;2022-09-09T08:14:49;24.70;1.00
19805;DHT22;10062;51.052;13.756;2022-09-09T08:17:21;24.10;1.00
19805;DHT22;10062;51.052;13.756;2022-09-09T08:19:53;23.00;99.90
19805;DHT22;10062;51.052;13.756;2022-09-09T08:22:29;22.10;99.90
19805;DHT22;10062;51.052;13.756;2022-09-09T08:25:02;22.10;1.00
19805;DHT22;10062;51.052;13.756;2022-09-09T08:27:36;22.20;94.00
19805;DHT22;10062;51.052;13.756;2022-09-09T08:30:10;22.20;1.00
19805;DHT22;10062;51.052;13.756;2022-09-09T08:32:41;22.30;1.00
19805;DHT22;10062;51.052;13.756;2022-09-09T08:35:14;22.70;99.90
19805;DHT22;10062;51.052;13.756;2022-09-09T08:37:46;23.10;1.00
19805;DHT22;10062;51.052;13.756;2022-09-09T08:40:25;23.90;1.00
19805;DHT22;10062;51.052;13.756;2022-09-09T08:43:02;24.20;1.00
19805;DHT22;10062;51.052;13.756;2022-09-09T08:45:37;24.00;1.00
19805;DHT22;10062;51.052;13.756;2022-09-09T08:48:29;23.50;1.00
19805;DHT22;10062;51.052;13.756;2022-09-09T08:51:04;23.20;99.90
19805;DHT22;10062;51.052;13.756;2022-09-09T08:53:43;23.00;99.90
19805;DHT22;10062;51.052;13.756;2022-09-09T08:56:19;22.60;53.50
19805;DHT22;10062;51.052;13.756;2022-09-09T08:58:56;22.50;12.90
19805;DHT22;10062;51.052;13.756;2022-09-09T09:02:02;22.60;1.00
19805;DHT22;10062;51.052;13.756;2022-09-09T09:04:52;22.80;1.00
19805;DHT22;10062;51.052;13.756;2022-09-09T09:07:35;22.50;1.00
19805;DHT22;10062;51.052;13.756;2022-09-09T09:10:21;22.20;1.00
19805;DHT22;10062;51.052;13.756;2022-09-09T09:12:58;22.20;99.90
19805;DHT22;10062;51.052;13.756;2022-09-09T09:15:35;22.30;1.00
19805;DHT22;10062;51.052;13.756;2022-09-09T09:18:12;22.40;1.00
19805;DHT22;10062;51.052;13.756;2022-09-09T09:20:50;22.40;99.00
19805;DHT22;10062;51.052;13.756;2022-09-09T09:23:27;22.20;1.00
19805;DHT22;10062;51.052;13.756;2022-09-09T09:26:07;22.00;99.90
19805;DHT22;10062;51.052;13.756;2022-09-09T09:28:43;21.80;1.00
19805;DHT22;10062;51.052;13.756;2022-09-09T09:31:20;21.20;1.00
19805;DHT22;10062;51.052;13.756;2022-09-09T09:33:54;20.70;1.00
19805;DHT22;10062;51.052;13.756;2022-09-09T09:36:34;20.10;1.00
19805;DHT22;10062;51.052;13.756;2022-09-09T09:39:22;20.10;1.00
19805;DHT22;10062;51.052;13.756;2022-09-09T09:41:54;20.00;1.00
19805;DHT22;10062;51.052;13.756;2022-09-09T09:44:29;20.00;1.00
19805;DHT22;10062;51.052;13.756;2022-09-09T09:47:11;20.10;1.00
19805;DHT22;10062;51.052;13.756;2022-09-09T09:49:52;20.20;1.00
19805;DHT22;10062;51.052;13.756;2022-09-09T09:52:26;20.20;1.00
19805;DHT22;10062;51.052;13.756;2022-09-09T09:54:59;20.30;1.00
19805;DHT22;10062;51.052;13.756;2022-09-09T09:57:34;20.50;1.00
19805;DHT22;10062;51.052;13.756;2022-09-09T10:00:15;20.80;99.90
19805;DHT22;10062;51.052;13.756;2022-09-09T10:02:53;21.60;1.00
19805;DHT22;10062;51.052;13.756;2022-09-09T10:05:30;24.90;99.90
19805;DHT22;10062;51.052;13.756;2022-09-09T10:08:12;28.10;1.00
19805;DHT22;10062;51.052;13.756;2022-09-09T10:11:05;32.20;1.00
19805;DHT22;10062;51.052;13.756;2022-09-09T10:13:48;35.50;1.00
19805;DHT22;10062;51.052;13.756;2022-09-09T10:16:33;38.10;1.00
19805;DHT22;10062;51.052;13.756;2022-09-09T10:19:13;40.50;1.00
19805;DHT22;10062;51.052;13.756;2022-09-09T10:21:57;39.20;1.00
19805;DHT22;10062;51.052;13.756;2022-09-09T10:24:48;40.60;1.00
19805;DHT22;10062;51.052;13.756;2022-09-09T10:27:26;43.20;1.00
19805;DHT22;10062;51.052;13.756;2022-09-09T10:30:07;42.70;1.00
19805;DHT22;10062;51.052;13.756;2022-09-09T10:32:46;45.20;1.00
19805;DHT22;10062;51.052;13.756;2022-09-09T10:35:25;46.20;1.00
19805;DHT22;10062;51.052;13.756;2022-09-09T10:38:14;46.90;1.00
19805;DHT22;10062;51.052;13.756;2022-09-09T10:41:00;44.00;1.00
19805;DHT22;10062;51.052;13.756;2022-09-09T10:43:42;43.10;1.00
19805;DHT22;10062;51.052;13.756;2022-09-09T10:46:23;45.70;1.00
19805;DHT22;10062;51.052;13.756;2022-09-09T10:49:10;48.10;1.00
19805;DHT22;10062;51.052;13.756;2022-09-09T10:51:52;49.50;1.00
19805;DHT22;10062;51.052;13.756;2022-09-09T10:54:41;43.70;1.00
19805;DHT22;10062;51.052;13.756;2022-09-09T10:57:24;46.00;1.00
19805;DHT22;10062;51.052;13.756;2022-09-09T11:00:02;47.60;1.00
19805;DHT22;10062;51.052;13.756;2022-09-09T11:02:35;48.80;1.00
19805;DHT22;10062;51.052;13.756;2022-09-09T11:05:17;49.30;1.00
19805;DHT22;10062;51.052;13.756;2022-09-09T11:07:55;49.30;1.00
19805;DHT22;10062;51.052;13.756;2022-09-09T11:10:34;49.30;1.00
19805;DHT22;10062;51.052;13.756;2022-09-09T11:13:13;47.10;1.00
19805;DHT22;10062;51.052;13.756;2022-09-09T11:15:51;44.20;1.00
19805;DHT22;10062;51.052;13.756;2022-09-09T11:18:24;41.00;1.00
19805;DHT22;10062;51.052;13.756;2022-09-09T11:21:00;38.40;1.00
19805;DHT22;10062;51.052;13.756;2022-09-09T11:23:39;36.00;1.00
19805;DHT22;10062;51.052;13.756;2022-09-09T11:26:15;34.10;1.00
19805;DHT22;10062;51.052;13.756;2022-09-09T11:28:58;32.50;1.00
19805;DHT22;10062;51.052;13.756;2022-09-09T11:31:44;30.70;1.00
19805;DHT22;10062;51.052;13.756;2022-09-09T11:34:33;28.30;1.00
19805;DHT22;10062;51.052;13.756;2022-09-09T11:40:24;25.10;1.00
19805;DHT22;10062;51.052;13.756;2022-09-09T11:43:05;25.60;1.00
19805;DHT22;10062;51.052;13.756;2022-09-09T11:45:40;26.50;1.00
19805;DHT22;10062;51.052;13.756;2022-09-09T11:48:24;27.30;1.00
19805;DHT22;10062;51.052;13.756;2022-09-09T11:51:02;26.50;1.00
19805;DHT22;10062;51.052;13.756;2022-09-09T11:53:47;26.20;1.00
19805;DHT22;10062;51.052;13.756;2022-09-09T11:56:28;25.10;1.00
19805;DHT22;10062;51.052;13.756;2022-09-09T11:59:03;24.60;99.90
19805;DHT22;10062;51.052;13.756;2022-09-09T12:01:37;25.00;99.90
19805;DHT22;10062;51.052;13.756;2022-09-09T12:04:29;25.30;99.90
19805;DHT22;10062;51.052;13.756;2022-09-09T12:07:04;25.50;99.90
19805;DHT22;10062;51.052;13.756;2022-09-09T12:09:44;25.80;1.00
19805;DHT22;10062;51.052;13.756;2022-09-09T12:12:27;26.30;1.00
19805;DHT22;10062;51.052;13.756;2022-09-09T12:15:24;26.70;99.90
19805;DHT22;10062;51.052;13.756;2022-09-09T12:17:59;27.00;99.90
19805;DHT22;10062;51.052;13.756;2022-09-09T12:20:35;27.00;99.90
19805;DHT22;10062;51.052;13.756;2022-09-09T12:23:26;27.10;1.00
19805;DHT22;10062;51.052;13.756;2022-09-09T12:26:15;27.30;1.00
19805;DHT22;10062;51.052;13.756;2022-09-09T12:29:09;27.50;99.90
19805;DHT22;10062;51.052;13.756;2022-09-09T12:31:47;26.90;54.20
19805;DHT22;10062;51.052;13.756;2022-09-09T12:34:38;26.80;68.10
19805;DHT22;10062;51.052;13.756;2022-09-09T12:37:16;26.80;99.90
19805;DHT22;10062;51.052;13.756;2022-09-09T12:39:52;26.80;99.90
19805;DHT22;10062;51.052;13.756;2022-09-09T12:42:26;26.90;52.60
19805;DHT22;10062;51.052;13.756;2022-09-09T12:45:01;27.10;1.00
19805;DHT22;10062;51.052;13.756;2022-09-09T12:47:40;27.50;1.00
19805;DHT22;10062;51.052;13.756;2022-09-09T12:50:18;27.90;1.00
19805;DHT22;10062;51.052;13.756;2022-09-09T12:52:51;28.10;1.00
19805;DHT22;10062;51.052;13.756;2022-09-09T12:55:28;28.20;1.00
19805;DHT22;10062;51.052;13.756;2022-09-09T12:58:02;28.60;1.00
19805;DHT22;10062;51.052;13.756;2022-09-09T13:00:37;28.70;1.00
19805;DHT22;10062;51.052;13.756;2022-09-09T13:03:20;28.70;1.00
19805;DHT22;10062;51.052;13.756;2022-09-09T13:05:54;28.80;1.00
19805;DHT22;10062;51.052;13.756;2022-09-09T13:08:31;28.40;1.00
19805;DHT22;10062;51.052;13.756;2022-09-09T13:11:06;28.00;1.00
19805;DHT22;10062;51.052;13.756;2022-09-09T13:13:40;27.80;1.00
19805;DHT22;10062;51.052;13.756;2022-09-09T13:16:21;27.70;1.00
19805;DHT22;10062;51.052;13.756;2022-09-09T13:18:54;27.60;1.00
19805;DHT22;10062;51.052;13.756;2022-09-09T13:21:33;27.60;1.00
19805;DHT22;10062;51.052;13.756;2022-09-09T13:24:30;27.80;1.00
19805;DHT22;10062;51.052;13.756;2022-09-09T13:27:01;27.90;1.00
19805;DHT22;10062;51.052;13.756;2022-09-09T13:29:33;28.30;1.00
19805;DHT22;10062;51.052;13.756;2022-09-09T13:32:16;28.60;1.00
19805;DHT22;10062;51.052;13.756;2022-09-09T13:34:51;28.80;1.00
19805;DHT22;10062;51.052;13.756;2022-09-09T13:37:26;28.70;1.00
19805;DHT22;10062;51.052;13.756;2022-09-09T13:39:58;28.60;1.00
19805;DHT22;10062;51.052;13.756;2022-09-09T13:42:33;28.50;1.00
19805;DHT22;10062;51.052;13.756;2022-09-09T13:45:16;28.40;1.00
19805;DHT22;10062;51.052;13.756;2022-09-09T13:47:52;28.30;1.00
19805;DHT22;10062;51.052;13.756;2022-09-09T13:50:27;28.10;1.00
19805;DHT22;10062;51.052;13.756;2022-09-09T13:52:59;27.90;1.00
19805;DHT22;10062;51.052;13.756;2022-09-09T13:55:31;27.60;1.00
19805;DHT22;10062;51.052;13.756;2022-09-09T13:58:03;27.50;1.00
19805;DHT22;10062;51.052;13.756;2022-09-09T14:00:36;27.30;1.00
19805;DHT22;10062;51.052;13.756;2022-09-09T14:03:09;27.20;1.00
19805;DHT22;10062;51.052;13.756;2022-09-09T14:05:40;27.00;1.00
19805;DHT22;10062;51.052;13.756;2022-09-09T14:08:20;26.70;1.00
19805;DHT22;10062;51.052;13.756;2022-09-09T14:10:53;26.50;1.00
19805;DHT22;10062;51.052;13.756;2022-09-09T14:13:25;26.40;1.00
19805;DHT22;10062;51.052;13.756;2022-09-09T14:15:57;26.20;1.00
19805;DHT22;10062;51.052;13.756;2022-09-09T14:18:30;26.10;1.00
19805;DHT22;10062;51.052;13.756;2022-09-09T14:21:02;26.00;1.00
19805;DHT22;10062;51.052;13.756;2022-09-09T14:23:34;26.00;1.00
19805;DHT22;10062;51.052;13.756;2022-09-09T14:26:06;26.10;1.00
19805;DHT22;10062;51.052;13.756;2022-09-09T14:28:38;26.10;1.00
19805;DHT22;10062;51.052;13.756;2022-09-09T14:31:10;26.20;1.00
19805;DHT22;10062;51.052;13.756;2022-09-09T14:33:45;26.30;36.60
19805;DHT22;10062;51.052;13.756;2022-09-09T14:36:20;26.30;1.00
19805;DHT22;10062;51.052;13.756;2022-09-09T14:38:54;26.10;1.00
19805;DHT22;10062;51.052;13.756;2022-09-09T14:41:26;26.20;1.00
19805;DHT22;10062;51.052;13.756;2022-09-09T14:43:59;26.20;1.00
19805;DHT22;10062;51.052;13.756;2022-09-09T14:46:31;26.20;1.00
19805;DHT22;10062;51.052;13.756;2022-09-09T14:49:05;26.10;1.00
19805;DHT22;10062;51.052;13.756;2022-09-09T14:51:36;26.20;1.00
19805;DHT22;10062;51.052;13.756;2022-09-09T14:54:08;26.30;1.00
19805;DHT22;10062;51.052;13.756;2022-09-09T14:56:41;26.60;1.00
19805;DHT22;10062;51.052;13.756;2022-09-09T14:59:13;26.00;1.00
19805;DHT22;10062;51.052;13.756;2022-09-09T15:01:44;26.00;1.00
19805;DHT22;10062;51.052;13.756;2022-09-09T15:04:17;26.00;1.00
19805;DHT22;10062;51.052;13.756;2022-09-09T15:06:50;26.00;1.00
19805;DHT22;10062;51.052;13.756;2022-09-09T15:09:23;26.00;1.00
19805;DHT22;10062;51.052;13.756;2022-09-09T15:11:55;25.90;1.00
19805;DHT22;10062;51.052;13.756;2022-09-09T15:14:27;25.90;1.00
19805;DHT22;10062;51.052;13.756;2022-09-09T15:16:58;25.80;1.00
19805;DHT22;10062;51.052;13.756;2022-09-09T15:19:31;26.20;23.20
19805;DHT22;10062;51.052;13.756;2022-09-09T15:22:04;25.60;38.10
19805;DHT22;10062;51.052;13.756;2022-09-09T15:24:36;25.60;1.00
19805;DHT22;10062;51.052;13.756;2022-09-09T15:27:08;25.60;1.00
19805;DHT22;10062;51.052;13.756;2022-09-09T15:29:40;25.60;1.00
19805;DHT22;10062;51.052;13.756;2022-09-09T15:32:12;25.60;1.00
19805;DHT22;10062;51.052;13.756;2022-09-09T15:34:45;25.50;1.00
19805;DHT22;10062;51.052;13.756;2022-09-09T15:37:17;25.20;1.00
19805;DHT22;10062;51.052;13.756;2022-09-09T15:39:48;25.20;1.00
19805;DHT22;10062;51.052;13.756;2022-09-09T15:42:20;25.20;19.50
19805;DHT22;10062;51.052;13.756;2022-09-09T15:44:51;25.00;99.90
19805;DHT22;10062;51.052;13.756;2022-09-09T15:47:23;23.90;1.00
19805;DHT22;10062;51.052;13.756;2022-09-09T15:49:56;23.70;1.00
19805;DHT22;10062;51.052;13.756;2022-09-09T15:52:28;23.90;1.00
19805;DHT22;10062;51.052;13.756;2022-09-09T15:54:59;23.70;1.00
19805;DHT22;10062;51.052;13.756;2022-09-09T15:57:32;23.70;99.90
19805;DHT22;10062;51.052;13.756;2022-09-09T16:00:04;23.80;1.00
19805;DHT22;10062;51.052;13.756;2022-09-09T16:02:37;23.80;1.00
19805;DHT22;10062;51.052;13.756;2022-09-09T16:05:10;23.80;99.90
19805;DHT22;10062;51.052;13.756;2022-09-09T16:07:42;24.20;99.90
19805;DHT22;10062;51.052;13.756;2022-09-09T16:10:15;23.80;99.90
19805;DHT22;10062;51.052;13.756;2022-09-09T16:12:47;23.40;99.90
19805;DHT22;10062;51.052;13.756;2022-09-09T16:15:19;23.40;97.00
19805;DHT22;10062;51.052;13.756;2022-09-09T16:17:53;23.40;99.90
19805;DHT22;10062;51.052;13.756;2022-09-09T16:20:26;23.30;99.90
19805;DHT22;10062;51.052;13.756;2022-09-09T16:22:58;23.40;99.90